createdAt,value
2019-03-06T00:02:18.127Z,6.24
2019-03-06T00:04:49.103Z,6.30
2019-03-06T00:07:20.038Z,6.21
2019-03-06T00:09:51.897Z,6.18
2019-03-06T00:12:22.767Z,6.06
2019-03-06T00:14:53.646Z,5.93
2019-03-06T00:17:24.439Z,5.88
2019-03-06T00:19:55.310Z,5.88
2019-03-06T00:22:26.046Z,5.90
2019-03-06T00:24:56.721Z,5.88
2019-03-06T00:27:27.514Z,5.87
2019-03-06T00:29:58.287Z,5.87
2019-03-06T00:32:29.189Z,5.81
2019-03-06T00:35:04.319Z,5.75
2019-03-06T00:37:35.154Z,5.73
2019-03-06T00:40:17.045Z,5.76
2019-03-06T00:42:49.453Z,5.75
2019-03-06T00:45:20.261Z,5.68
2019-03-06T00:47:51.062Z,5.65
2019-03-06T00:50:21.833Z,5.63
2019-03-06T00:52:52.432Z,5.60
2019-03-06T00:55:23.383Z,5.56
2019-03-06T00:57:54.036Z,5.56
2019-03-06T01:00:25.890Z,5.54
2019-03-06T01:02:56.689Z,5.50
2019-03-06T01:05:27.854Z,5.44
2019-03-06T01:07:58.617Z,5.44
2019-03-06T01:10:29.637Z,5.45
2019-03-06T01:13:00.334Z,5.47
2019-03-06T01:15:31.459Z,5.43
2019-03-06T01:18:02.219Z,5.34
2019-03-06T01:20:33.005Z,5.27
2019-03-06T01:23:03.930Z,5.20
2019-03-06T01:25:34.725Z,5.13
2019-03-06T01:28:05.602Z,5.16
2019-03-06T01:30:36.552Z,5.09
2019-03-06T01:33:13.804Z,5.15
2019-03-06T01:35:56.966Z,5.10
2019-03-06T01:38:47.277Z,5.11
2019-03-06T01:41:40.312Z,5.05
2019-03-06T01:44:24.351Z,5.05
2019-03-06T01:46:55.501Z,5.06
2019-03-06T01:49:26.192Z,4.94
2019-03-06T01:51:57.086Z,4.93
2019-03-06T01:54:27.872Z,4.86
2019-03-06T01:56:58.755Z,4.93
2019-03-06T01:59:29.432Z,4.94
2019-03-06T02:02:00.500Z,4.92
2019-03-06T02:04:31.344Z,4.92
2019-03-06T02:07:02.027Z,4.90
2019-03-06T02:09:32.817Z,4.87
2019-03-06T02:12:03.829Z,4.85
2019-03-06T02:14:34.454Z,4.84
2019-03-06T02:17:05.425Z,4.79
2019-03-06T02:19:36.127Z,4.70
2019-03-06T02:22:07.164Z,4.65
2019-03-06T02:24:37.941Z,4.65
2019-03-06T02:27:08.833Z,4.67
2019-03-06T02:29:39.674Z,4.69
2019-03-06T02:32:10.452Z,4.68
2019-03-06T02:34:41.343Z,4.53
2019-03-06T02:37:12.364Z,4.51
2019-03-06T02:39:43.064Z,4.45
2019-03-06T02:42:13.846Z,4.35
2019-03-06T02:44:44.826Z,4.32
2019-03-06T02:47:15.629Z,4.25
2019-03-06T02:49:46.506Z,4.25
2019-03-06T02:52:17.358Z,4.26
2019-03-06T02:54:48.040Z,4.28
2019-03-06T02:57:18.920Z,4.30
2019-03-06T03:00:17.724Z,4.30
2019-03-06T03:03:04.310Z,4.26
2019-03-06T03:05:53.902Z,4.31
2019-03-06T03:08:25.435Z,4.34
2019-03-06T03:10:56.283Z,4.41
2019-03-06T03:13:27.052Z,4.43
2019-03-06T03:15:57.942Z,4.37
2019-03-06T03:18:28.834Z,4.26
2019-03-06T03:20:59.885Z,4.09
2019-03-06T03:23:30.669Z,3.98
2019-03-06T03:26:01.467Z,3.88
2019-03-06T03:28:32.386Z,3.80
2019-03-06T03:31:03.285Z,3.78
2019-03-06T03:33:34.061Z,3.78
2019-03-06T03:36:04.801Z,3.76
2019-03-06T03:38:35.693Z,3.67
2019-03-06T03:41:06.783Z,3.69
2019-03-06T03:43:38.010Z,3.66
2019-03-06T03:46:08.800Z,3.64
2019-03-06T03:48:40.861Z,3.65
2019-03-06T03:51:11.803Z,3.58
2019-03-06T03:53:42.563Z,3.54
2019-03-06T03:56:13.238Z,3.51
2019-03-06T03:58:44.128Z,3.45
2019-03-06T04:01:14.947Z,3.49
2019-03-06T04:03:46.054Z,3.53
2019-03-06T04:06:17.094Z,3.57
2019-03-06T04:08:47.889Z,3.56
2019-03-06T04:11:18.651Z,3.58
2019-03-06T04:13:49.539Z,3.57
2019-03-06T04:16:20.165Z,3.57
2019-03-06T04:18:51.039Z,3.49
2019-03-06T04:21:22.092Z,3.34
2019-03-06T04:23:52.787Z,3.17
2019-03-06T04:26:23.640Z,3.07
2019-03-06T04:28:54.523Z,3.12
2019-03-06T04:31:25.362Z,3.06
2019-03-06T04:33:56.030Z,3.04
2019-03-06T04:36:26.750Z,2.96
2019-03-06T04:38:58.417Z,3.00
2019-03-06T04:41:29.246Z,3.10
2019-03-06T04:44:00.037Z,2.91
2019-03-06T04:46:31.703Z,2.92
2019-03-06T04:49:02.474Z,2.94
2019-03-06T04:51:33.214Z,3.09
2019-03-06T04:54:04.100Z,3.11
2019-03-06T04:56:34.877Z,3.08
2019-03-06T04:59:05.859Z,2.89
2019-03-06T05:01:36.619Z,2.89
2019-03-06T05:04:07.548Z,2.87
2019-03-06T05:06:38.189Z,2.86
2019-03-06T05:09:09.381Z,2.84
2019-03-06T05:11:40.201Z,2.87
2019-03-06T05:14:11.281Z,2.83
2019-03-06T05:17:01.046Z,2.93
2019-03-06T05:19:31.879Z,2.90
2019-03-06T05:22:02.594Z,2.75
2019-03-06T05:24:33.670Z,2.80
2019-03-06T05:27:04.469Z,2.84
2019-03-06T05:29:35.341Z,2.83
2019-03-06T05:32:34.113Z,2.83
2019-03-06T05:35:40.520Z,2.76
2019-03-06T05:38:30.963Z,2.69
2019-03-06T05:41:01.828Z,2.66
2019-03-06T05:43:32.632Z,2.62
2019-03-06T05:46:03.396Z,2.63
2019-03-06T05:48:34.206Z,2.58
2019-03-06T05:51:05.107Z,2.64
2019-03-06T05:53:35.852Z,2.63
2019-03-06T05:56:06.799Z,2.56
2019-03-06T05:58:37.625Z,2.58
2019-03-06T06:01:08.533Z,2.60
2019-03-06T06:03:39.330Z,2.64
2019-03-06T06:06:10.218Z,2.67
2019-03-06T06:08:41.111Z,2.68
2019-03-06T06:11:13.072Z,2.69
2019-03-06T06:13:43.882Z,2.71
2019-03-06T06:16:15.159Z,2.73
2019-03-06T06:18:46.086Z,2.70
2019-03-06T06:21:35.465Z,2.57
2019-03-06T06:24:12.955Z,2.57
2019-03-06T06:26:43.798Z,2.50
2019-03-06T06:29:14.533Z,2.37
2019-03-06T06:31:45.205Z,2.48
2019-03-06T06:34:16.361Z,2.50
2019-03-06T06:36:47.049Z,2.55
2019-03-06T06:39:17.935Z,2.54
2019-03-06T06:41:49.669Z,2.56
2019-03-06T06:44:20.416Z,2.66
2019-03-06T06:46:51.209Z,2.68
2019-03-06T06:49:21.894Z,2.70
2019-03-06T06:52:26.995Z,2.79
2019-03-06T06:55:47.464Z,2.74
2019-03-06T06:58:46.111Z,2.73
2019-03-06T07:02:18.141Z,2.76
2019-03-06T07:05:48.462Z,2.79
2019-03-06T07:08:50.050Z,2.81
2019-03-06T07:11:36.304Z,2.86
2019-03-06T07:14:19.028Z,2.97
2019-03-06T07:17:15.024Z,3.03
2019-03-06T07:20:03.515Z,3.14
2019-03-06T07:22:45.878Z,3.25
2019-03-06T07:25:32.315Z,3.38
2019-03-06T07:28:26.910Z,3.55
2019-03-06T07:31:15.411Z,3.70
2019-03-06T07:33:58.485Z,3.84
2019-03-06T07:36:46.693Z,3.98
2019-03-06T07:39:36.604Z,4.10
2019-03-06T07:42:29.654Z,4.22
2019-03-06T07:45:44.370Z,4.32
2019-03-06T07:48:29.623Z,4.42
2019-03-06T07:51:18.892Z,4.56
2019-03-06T07:54:15.353Z,4.67
2019-03-06T07:56:56.531Z,4.83
2019-03-06T07:59:27.215Z,5.04
2019-03-06T08:02:01.137Z,5.30
2019-03-06T08:04:31.961Z,5.49
2019-03-06T08:07:13.785Z,5.59
2019-03-06T08:09:44.858Z,5.71
2019-03-06T08:12:35.572Z,5.84
2019-03-06T08:15:26.161Z,6.01
2019-03-06T08:18:15.956Z,6.06
2019-03-06T08:21:20.929Z,6.21
2019-03-06T08:24:06.564Z,6.28
2019-03-06T08:26:37.433Z,6.42
2019-03-06T08:29:08.263Z,6.54
2019-03-06T08:31:51.350Z,6.74
2019-03-06T08:34:22.246Z,6.95
2019-03-06T08:36:53.151Z,7.05
2019-03-06T08:39:24.633Z,7.11
2019-03-06T08:41:55.524Z,7.17
2019-03-06T08:44:26.570Z,7.26
2019-03-06T08:47:22.535Z,7.43
2019-03-06T08:50:15.388Z,7.55
2019-03-06T08:53:04.086Z,7.66
2019-03-06T08:55:59.830Z,7.88
2019-03-06T08:58:55.426Z,8.10
2019-03-06T09:01:45.547Z,8.15
2019-03-06T09:04:34.237Z,8.28
2019-03-06T09:07:17.578Z,8.26
2019-03-06T09:10:13.449Z,8.41
2019-03-06T09:13:12.270Z,8.57
2019-03-06T09:16:06.553Z,8.55
2019-03-06T09:18:56.542Z,8.80
2019-03-06T09:21:38.231Z,9.08
2019-03-06T09:24:19.104Z,9.25
2019-03-06T09:26:59.783Z,9.30
2019-03-06T09:29:59.900Z,9.26
2019-03-06T09:33:01.489Z,9.30
2019-03-06T09:35:47.391Z,9.34
2019-03-06T09:38:49.103Z,9.44
2019-03-06T09:41:48.300Z,9.58
2019-03-06T09:44:44.210Z,9.67
2019-03-06T09:47:37.486Z,9.60
2019-03-06T09:50:34.871Z,9.47
2019-03-06T09:53:24.923Z,9.55
2019-03-06T09:56:09.902Z,9.45
2019-03-06T09:58:47.641Z,9.44
2019-03-06T10:01:43.866Z,9.53
2019-03-06T10:04:42.468Z,9.65
2019-03-06T10:07:30.506Z,9.75
2019-03-06T10:10:18.902Z,9.84
2019-03-06T10:13:07.532Z,9.85
2019-03-06T10:15:46.635Z,9.83
2019-03-06T10:18:31.348Z,10.00
2019-03-06T10:21:02.131Z,10.06
2019-03-06T10:23:33.013Z,10.01
2019-03-06T10:26:03.802Z,10.06
2019-03-06T10:28:36.592Z,10.18
2019-03-06T10:31:07.374Z,10.28
2019-03-06T10:33:38.267Z,10.35
2019-03-06T10:36:09.505Z,10.44
2019-03-06T10:38:40.452Z,10.44
2019-03-06T10:41:11.270Z,10.58
2019-03-06T10:43:48.885Z,10.71
2019-03-06T10:46:14.545Z,10.85
2019-03-06T10:48:45.716Z,10.94
2019-03-06T10:51:16.619Z,11.11
2019-03-06T10:53:47.755Z,11.14
2019-03-06T10:56:18.670Z,11.27
2019-03-06T10:58:49.507Z,11.46
2019-03-06T11:01:20.439Z,11.47
2019-03-06T11:04:07.219Z,11.47
2019-03-06T11:06:38.018Z,11.70
2019-03-06T11:09:10.922Z,11.65
2019-03-06T11:11:42.114Z,11.73
2019-03-06T11:14:13.406Z,11.87
2019-03-06T11:16:44.399Z,11.93
2019-03-06T11:19:15.794Z,11.99
2019-03-06T11:21:46.697Z,12.19
2019-03-06T11:24:17.388Z,12.31
2019-03-06T11:26:48.259Z,12.47
2019-03-06T11:29:19.505Z,12.62
2019-03-06T11:31:50.379Z,12.66
2019-03-06T11:34:21.367Z,12.76
2019-03-06T11:36:53.791Z,13.01
2019-03-06T11:39:25.154Z,13.17
2019-03-06T11:41:55.966Z,13.32
2019-03-06T11:44:26.805Z,13.46
2019-03-06T11:46:57.835Z,13.54
2019-03-06T11:49:28.651Z,13.56
2019-03-06T11:51:59.722Z,13.46
2019-03-06T11:54:30.775Z,13.52
2019-03-06T11:57:01.643Z,13.56
2019-03-06T11:59:32.401Z,13.74
2019-03-06T12:02:04.598Z,13.80
2019-03-06T12:04:36.555Z,14.04
2019-03-06T12:07:08.530Z,14.13
2019-03-06T12:09:39.334Z,14.24
2019-03-06T12:12:10.303Z,14.20
2019-03-06T12:14:41.667Z,14.19
2019-03-06T12:17:14.160Z,14.23
2019-03-06T12:19:44.963Z,14.34
2019-03-06T12:22:16.082Z,14.39
2019-03-06T12:24:46.712Z,14.45
2019-03-06T12:27:17.594Z,14.57
2019-03-06T12:29:48.516Z,14.76
2019-03-06T12:32:19.309Z,14.83
2019-03-06T12:34:50.082Z,14.95
2019-03-06T12:37:20.930Z,15.06
2019-03-06T12:39:51.556Z,15.27
2019-03-06T12:42:22.402Z,15.32
2019-03-06T12:44:53.414Z,15.40
2019-03-06T12:47:24.564Z,15.51
2019-03-06T12:49:55.273Z,15.48
2019-03-06T12:52:26.138Z,15.47
2019-03-06T12:54:57.187Z,15.48
2019-03-06T12:57:27.984Z,15.72
2019-03-06T12:59:58.768Z,15.66
2019-03-06T13:02:30.729Z,15.49
2019-03-06T13:05:01.452Z,15.59
2019-03-06T13:07:32.835Z,15.75
2019-03-06T13:10:03.695Z,16.02
2019-03-06T13:12:34.292Z,16.06
2019-03-06T13:15:05.998Z,16.19
2019-03-06T13:17:37.733Z,16.19
2019-03-06T13:20:09.518Z,16.17
2019-03-06T13:22:40.495Z,16.31
2019-03-06T13:25:12.298Z,16.38
2019-03-06T13:27:43.284Z,16.45
2019-03-06T13:30:15.840Z,16.68
2019-03-06T13:33:08.724Z,16.79
2019-03-06T13:35:39.826Z,16.91
2019-03-06T13:38:11.725Z,16.87
2019-03-06T13:40:43.669Z,16.90
2019-03-06T13:43:14.313Z,17.07
2019-03-06T13:45:45.302Z,16.99
2019-03-06T13:48:17.178Z,17.05
2019-03-06T13:50:48.281Z,17.02
2019-03-06T13:53:20.586Z,17.03
2019-03-06T13:55:51.660Z,17.10
2019-03-06T13:58:22.602Z,17.13
2019-03-06T14:00:53.580Z,17.09
2019-03-06T14:03:25.086Z,16.95
2019-03-06T14:05:57.278Z,16.95
2019-03-06T14:08:28.116Z,17.02
2019-03-06T14:10:58.904Z,16.96
2019-03-06T14:13:29.679Z,16.99
2019-03-06T14:16:00.947Z,16.97
2019-03-06T14:18:31.750Z,16.97
2019-03-06T14:21:02.415Z,16.90
2019-03-06T14:23:35.319Z,16.87
2019-03-06T14:26:07.289Z,16.74
2019-03-06T14:28:38.034Z,16.76
2019-03-06T14:31:10.687Z,16.92
2019-03-06T14:33:41.587Z,16.96
2019-03-06T14:36:12.352Z,16.92
2019-03-06T14:38:43.428Z,16.89
2019-03-06T14:41:14.105Z,16.91
2019-03-06T14:43:44.999Z,16.90
2019-03-06T14:46:16.735Z,16.98
2019-03-06T14:48:47.675Z,17.09
2019-03-06T14:51:18.323Z,17.17
2019-03-06T14:53:49.205Z,17.36
2019-03-06T14:56:20.029Z,17.38
2019-03-06T14:58:50.769Z,17.46
2019-03-06T15:01:21.465Z,17.44
2019-03-06T15:03:52.336Z,17.39
2019-03-06T15:06:23.343Z,17.04
2019-03-06T15:08:54.159Z,16.79
2019-03-06T15:11:32.952Z,16.70
2019-03-06T15:13:57.559Z,16.64
2019-03-06T15:16:28.423Z,16.52
2019-03-06T15:18:59.219Z,16.23
2019-03-06T15:21:30.104Z,16.21
2019-03-06T15:24:00.873Z,16.16
2019-03-06T15:26:31.687Z,16.16
2019-03-06T15:29:02.556Z,16.07
2019-03-06T15:31:33.626Z,16.10
2019-03-06T15:34:04.663Z,16.13
2019-03-06T15:36:35.632Z,15.98
2019-03-06T15:39:19.739Z,15.82
2019-03-06T15:41:59.905Z,15.55
2019-03-06T15:44:23.223Z,15.42
2019-03-06T15:46:54.162Z,15.44
2019-03-06T15:49:25.155Z,15.25
2019-03-06T15:51:55.917Z,14.99
2019-03-06T15:54:26.785Z,14.70
2019-03-06T15:56:57.574Z,14.48
2019-03-06T15:59:28.352Z,14.37
2019-03-06T16:01:59.363Z,14.29
2019-03-06T16:04:30.256Z,14.19
2019-03-06T16:07:01.058Z,14.11
2019-03-06T16:09:31.944Z,13.97
2019-03-06T16:12:02.730Z,13.90
2019-03-06T16:14:33.502Z,13.77
2019-03-06T16:17:04.579Z,13.71
2019-03-06T16:19:35.734Z,13.67
2019-03-06T16:22:06.960Z,13.62
2019-03-06T16:24:37.963Z,13.55
2019-03-06T16:27:08.734Z,13.52
2019-03-06T16:29:39.623Z,13.48
2019-03-06T16:32:10.407Z,13.45
2019-03-06T16:34:41.606Z,13.44
2019-03-06T16:37:13.349Z,13.44
2019-03-06T16:39:44.271Z,13.43
2019-03-06T16:42:15.089Z,13.37
2019-03-06T16:44:45.925Z,13.34
2019-03-06T16:47:16.559Z,13.47
2019-03-06T16:49:47.868Z,13.42
2019-03-06T16:52:18.771Z,13.45
2019-03-06T16:54:49.558Z,13.67
2019-03-06T16:57:20.522Z,13.61
2019-03-06T16:59:51.423Z,13.63
2019-03-06T17:02:22.191Z,13.55
2019-03-06T17:04:54.111Z,13.37
2019-03-06T17:07:25.119Z,13.24
2019-03-06T17:09:56.071Z,13.11
2019-03-06T17:12:26.996Z,12.98
2019-03-06T17:14:57.887Z,12.94
2019-03-06T17:17:28.839Z,12.88
2019-03-06T17:19:59.706Z,12.82
2019-03-06T17:22:30.727Z,12.79
2019-03-06T17:25:03.896Z,12.73
2019-03-06T17:27:35.594Z,12.66
2019-03-06T17:30:09.937Z,12.63
2019-03-06T17:33:09.020Z,12.58
2019-03-06T17:35:40.379Z,12.56
2019-03-06T17:38:12.111Z,12.61
2019-03-06T17:40:43.992Z,12.63
2019-03-06T17:43:15.407Z,12.63
2019-03-06T17:45:46.538Z,12.59
2019-03-06T17:48:17.532Z,12.53
2019-03-06T17:50:48.493Z,12.57
2019-03-06T17:53:19.495Z,12.59
2019-03-06T17:55:50.431Z,12.62
2019-03-06T17:58:21.546Z,12.76
2019-03-06T18:00:55.366Z,12.80
2019-03-06T18:03:35.248Z,12.90
2019-03-06T18:06:06.063Z,12.94
2019-03-06T18:08:37.212Z,12.93
2019-03-06T18:11:08.042Z,12.83
2019-03-06T18:13:38.779Z,12.79
2019-03-06T18:16:09.533Z,12.91
2019-03-06T18:18:40.127Z,12.91
2019-03-06T18:21:10.887Z,12.81
2019-03-06T18:23:41.589Z,12.80
2019-03-06T18:26:12.487Z,12.84
2019-03-06T18:28:43.256Z,12.79
2019-03-06T18:31:14.229Z,12.84
2019-03-06T18:33:45.178Z,12.86
2019-03-06T18:36:16.039Z,12.85
2019-03-06T18:38:46.911Z,12.74
2019-03-06T18:41:19.130Z,12.71
2019-03-06T18:43:49.811Z,12.72
2019-03-06T18:46:20.686Z,12.91
2019-03-06T18:48:51.831Z,12.90
2019-03-06T18:51:23.795Z,12.90
2019-03-06T18:53:54.719Z,12.82
2019-03-06T18:56:26.487Z,12.83
2019-03-06T18:58:58.943Z,12.81
2019-03-06T19:01:30.238Z,12.73
2019-03-06T19:04:01.015Z,12.60
2019-03-06T19:06:31.791Z,12.51
2019-03-06T19:09:02.673Z,12.50
2019-03-06T19:11:35.383Z,12.47
2019-03-06T19:14:06.735Z,12.30
2019-03-06T19:16:37.511Z,12.21
2019-03-06T19:19:08.280Z,12.21
2019-03-06T19:21:38.979Z,12.29
2019-03-06T19:24:09.943Z,12.35
2019-03-06T19:26:41.310Z,12.30
2019-03-06T19:29:12.106Z,12.23
2019-03-06T19:31:44.034Z,12.22
2019-03-06T19:34:14.958Z,12.21
2019-03-06T19:36:45.850Z,12.16
2019-03-06T19:39:16.903Z,12.10
2019-03-06T19:41:47.876Z,12.12
2019-03-06T19:44:19.704Z,12.16
2019-03-06T19:46:50.833Z,12.19
2019-03-06T19:49:21.721Z,12.28
2019-03-06T19:51:52.686Z,12.40
2019-03-06T19:54:23.560Z,12.51
2019-03-06T19:56:55.076Z,12.43
2019-03-06T19:59:25.892Z,12.39
2019-03-06T20:01:56.829Z,12.35
2019-03-06T20:04:27.725Z,12.27
2019-03-06T20:06:58.850Z,12.23
2019-03-06T20:09:30.311Z,12.29
2019-03-06T20:12:01.305Z,12.27
2019-03-06T20:14:32.453Z,12.23
2019-03-06T20:17:03.387Z,12.30
2019-03-06T20:19:34.280Z,12.39
2019-03-06T20:22:05.164Z,12.51
2019-03-06T20:24:36.086Z,12.54
2019-03-06T20:27:07.116Z,12.45
2019-03-06T20:29:37.963Z,12.31
2019-03-06T20:32:08.714Z,12.16
2019-03-06T20:34:39.535Z,12.09
2019-03-06T20:37:10.327Z,11.89
2019-03-06T20:39:41.208Z,11.80
2019-03-06T20:42:12.103Z,11.68
2019-03-06T20:44:42.898Z,11.62
2019-03-06T20:47:14.151Z,11.43
2019-03-06T20:49:44.865Z,11.28
2019-03-06T20:52:15.835Z,11.20
2019-03-06T20:54:46.388Z,11.09
2019-03-06T20:57:16.918Z,11.04
2019-03-06T20:59:47.591Z,11.09
2019-03-06T21:02:18.960Z,10.98
2019-03-06T21:04:49.675Z,10.88
2019-03-06T21:07:20.729Z,10.88
2019-03-06T21:09:51.553Z,10.83
2019-03-06T21:12:22.292Z,10.72
2019-03-06T21:14:53.187Z,10.69
2019-03-06T21:17:24.865Z,10.67
2019-03-06T21:19:55.722Z,10.63
2019-03-06T21:22:26.486Z,10.58
2019-03-06T21:24:57.153Z,10.51
2019-03-06T21:27:27.943Z,10.46
2019-03-06T21:29:58.615Z,10.40
2019-03-06T21:32:29.747Z,10.36
2019-03-06T21:35:00.527Z,10.30
2019-03-06T21:37:31.487Z,10.30
2019-03-06T21:40:02.212Z,10.24
2019-03-06T21:42:33.294Z,10.22
2019-03-06T21:45:04.185Z,10.27
2019-03-06T21:47:34.996Z,10.14
2019-03-06T21:50:08.430Z,10.07
2019-03-06T21:52:39.310Z,10.10
2019-03-06T21:55:21.723Z,10.03
2019-03-06T21:57:54.620Z,10.07
2019-03-06T22:00:25.663Z,10.17
2019-03-06T22:02:56.447Z,10.22
2019-03-06T22:05:27.227Z,10.00
2019-03-06T22:07:57.928Z,9.89
2019-03-06T22:10:28.906Z,9.89
2019-03-06T22:12:59.608Z,9.86
2019-03-06T22:15:30.495Z,9.88
2019-03-06T22:18:01.288Z,9.86
2019-03-06T22:20:32.165Z,9.81
2019-03-06T22:23:03.432Z,9.79
2019-03-06T22:25:34.321Z,9.89
2019-03-06T22:28:05.229Z,9.77
2019-03-06T22:30:36.129Z,9.82
2019-03-06T22:33:06.918Z,9.99
2019-03-06T22:35:37.699Z,10.06
2019-03-06T22:38:08.759Z,10.03
2019-03-06T22:40:39.538Z,9.99
2019-03-06T22:43:11.354Z,10.17
2019-03-06T22:45:42.144Z,10.38
2019-03-06T22:48:13.303Z,10.40
2019-03-06T22:50:44.020Z,10.38
2019-03-06T22:53:15.225Z,10.24
2019-03-06T22:55:45.999Z,10.22
2019-03-06T22:58:16.812Z,10.30
2019-03-06T23:00:54.978Z,10.24
2019-03-06T23:03:26.981Z,10.29
2019-03-06T23:05:57.871Z,10.43
2019-03-06T23:08:28.623Z,10.51
2019-03-06T23:10:59.515Z,10.44
2019-03-06T23:13:31.319Z,10.31
2019-03-06T23:16:02.098Z,10.20
2019-03-06T23:18:33.006Z,10.17
2019-03-06T23:21:03.946Z,10.17
2019-03-06T23:23:35.155Z,10.04
2019-03-06T23:26:06.094Z,9.90
2019-03-06T23:28:36.953Z,9.79
2019-03-06T23:31:07.829Z,9.76
2019-03-06T23:33:38.513Z,9.77
2019-03-06T23:36:09.297Z,9.69
2019-03-06T23:38:40.079Z,9.70
2019-03-06T23:41:10.665Z,9.63
2019-03-06T23:43:41.729Z,9.61
2019-03-06T23:46:13.146Z,9.60
2019-03-06T23:48:43.835Z,9.58
2019-03-06T23:51:25.734Z,9.55
2019-03-06T23:53:56.724Z,9.58
2019-03-06T23:56:27.704Z,9.65
2019-03-06T23:58:58.541Z,9.71
